createdAt,value
2023-04-15T00:00:57.788Z,14.50
2023-04-15T00:01:57.714Z,15.20
2023-04-15T00:02:58.073Z,15.90
2023-04-15T00:03:58.057Z,13.50
2023-04-15T00:04:57.899Z,16.10
2023-04-15T00:05:57.661Z,18.80
2023-04-15T00:06:57.642Z,16.30
2023-04-15T00:07:57.664Z,17.80
2023-04-15T00:08:57.635Z,17.30
2023-04-15T00:09:57.653Z,16.70
2023-04-15T00:10:57.644Z,14.30
2023-04-15T00:11:57.731Z,16.50
2023-04-15T00:12:57.750Z,15.60
2023-04-15T00:13:57.807Z,16.20
2023-04-15T00:14:57.868Z,16.10
2023-04-15T00:15:57.630Z,17.20
2023-04-15T00:16:58.145Z,14.30
2023-04-15T00:17:58.009Z,14.80
2023-04-15T00:18:58.258Z,15.40
2023-04-15T00:19:58.116Z,15.60
2023-04-15T00:20:57.545Z,15.60
2023-04-15T00:21:58.164Z,15.10
2023-04-15T00:22:58.156Z,15.90
2023-04-15T00:23:57.484Z,17.90
2023-04-15T00:24:57.769Z,16.50
2023-04-15T00:25:58.180Z,15.40
2023-04-15T00:26:58.210Z,14.50
2023-04-15T00:27:58.178Z,16.80
2023-04-15T00:28:57.537Z,14.90
2023-04-15T00:29:58.261Z,17.40
2023-04-15T00:30:58.268Z,15.70
2023-04-15T00:31:57.429Z,15.10
2023-04-15T00:32:57.883Z,15.50
2023-04-15T00:33:57.939Z,16.20
2023-04-15T00:34:58.309Z,16.10
2023-04-15T00:35:58.321Z,14.60
2023-04-15T00:36:57.414Z,16.20
2023-04-15T00:37:57.505Z,15.00
2023-04-15T00:38:57.628Z,17.50
2023-04-15T00:39:58.208Z,15.30
2023-04-15T00:40:58.274Z,18.10
2023-04-15T00:41:57.402Z,16.30
2023-04-15T00:42:57.457Z,17.20
2023-04-15T00:43:57.346Z,16.40
2023-04-15T00:44:57.370Z,15.10
2023-04-15T00:45:57.458Z,15.60
2023-04-15T00:46:57.473Z,16.70
2023-04-15T00:47:57.584Z,17.10
2023-04-15T00:48:57.788Z,17.30
2023-04-15T00:49:57.590Z,14.80
2023-04-15T00:50:57.310Z,15.00
2023-04-15T00:51:57.565Z,16.70
2023-04-15T00:52:57.776Z,15.60
2023-04-15T00:53:57.824Z,14.40
2023-04-15T00:54:57.733Z,15.30
2023-04-15T00:55:57.945Z,17.20
2023-04-15T00:56:57.986Z,17.00
2023-04-15T00:57:57.842Z,17.00
2023-04-15T00:58:58.337Z,16.20
2023-04-15T00:59:57.279Z,19.20
2023-04-15T01:00:57.385Z,16.20
2023-04-15T01:01:57.967Z,15.50
2023-04-15T01:02:57.442Z,17.70
2023-04-15T01:03:57.429Z,17.80
2023-04-15T01:04:57.301Z,19.20
2023-04-15T01:05:57.351Z,15.70
2023-04-15T01:06:57.406Z,19.90
2023-04-15T01:07:57.440Z,16.60
2023-04-15T01:08:57.491Z,18.10
2023-04-15T01:09:57.536Z,19.00
2023-04-15T01:10:57.587Z,16.80
2023-04-15T01:11:57.302Z,17.70
2023-04-15T01:12:57.687Z,20.30
2023-04-15T01:13:57.754Z,18.30
2023-04-15T01:14:57.479Z,18.50
2023-04-15T01:15:57.982Z,17.10
2023-04-15T01:16:57.908Z,16.50
2023-04-15T01:17:57.654Z,15.10
2023-04-15T01:18:57.102Z,16.00
2023-04-15T01:19:57.132Z,20.10
2023-04-15T01:20:57.181Z,18.40
2023-04-15T01:21:57.221Z,17.20
2023-04-15T01:22:57.267Z,16.70
2023-04-15T01:23:57.096Z,18.30
2023-04-15T01:24:57.134Z,19.00
2023-04-15T01:25:57.126Z,17.40
2023-04-15T01:26:57.279Z,16.80
2023-04-15T01:27:57.510Z,17.90
2023-04-15T01:28:57.632Z,16.90
2023-04-15T01:29:57.050Z,15.50
2023-04-15T01:30:57.054Z,15.20
2023-04-15T01:31:57.094Z,19.30
2023-04-15T01:32:57.685Z,16.80
2023-04-15T01:33:57.306Z,17.80
2023-04-15T01:34:57.397Z,17.10
2023-04-15T01:35:57.892Z,17.20
2023-04-15T01:36:57.104Z,16.20
2023-04-15T01:37:57.795Z,14.80
2023-04-15T01:38:56.981Z,17.40
2023-04-15T01:39:57.825Z,15.70
2023-04-15T01:40:57.048Z,17.30
2023-04-15T01:41:57.059Z,15.90
2023-04-15T01:42:57.347Z,17.20
2023-04-15T01:43:57.958Z,18.30
2023-04-15T01:44:57.848Z,17.10
2023-04-15T01:45:57.613Z,18.00
2023-04-15T01:46:57.195Z,16.50
2023-04-15T01:47:57.878Z,18.90
2023-04-15T01:48:56.910Z,16.60
2023-04-15T01:49:56.908Z,18.10
2023-04-15T01:50:57.053Z,17.90
2023-04-15T01:51:57.147Z,17.10
2023-04-15T01:52:57.180Z,19.10
2023-04-15T01:53:56.922Z,21.00
2023-04-15T01:54:56.890Z,17.10
2023-04-15T01:55:56.911Z,19.10
2023-04-15T01:56:56.966Z,18.80
2023-04-15T01:57:56.948Z,20.60
2023-04-15T01:58:56.917Z,19.10
2023-04-15T01:59:56.942Z,19.10
2023-04-15T02:00:57.007Z,19.30
2023-04-15T02:01:57.058Z,19.90
2023-04-15T02:02:57.208Z,18.80
2023-04-15T02:03:57.209Z,18.00
2023-04-15T02:04:57.188Z,20.00
2023-04-15T02:05:57.246Z,19.30
2023-04-15T02:06:56.786Z,17.40
2023-04-15T02:07:57.027Z,21.00
2023-04-15T02:08:56.955Z,19.00
2023-04-15T02:09:57.431Z,16.00
2023-04-15T02:10:57.054Z,22.30
2023-04-15T02:11:57.541Z,16.90
2023-04-15T02:12:57.468Z,17.80
2023-04-15T02:13:56.841Z,20.60
2023-04-15T02:14:56.960Z,19.30
2023-04-15T02:15:57.196Z,18.80
2023-04-15T02:16:57.054Z,18.80
2023-04-15T02:17:57.206Z,18.30
2023-04-15T02:18:57.491Z,18.90
2023-04-15T02:19:56.709Z,18.40
2023-04-15T02:20:57.061Z,17.80
2023-04-15T02:21:56.874Z,18.70
2023-04-15T02:22:56.998Z,18.50
2023-04-15T02:23:57.124Z,20.60
2023-04-15T02:24:57.447Z,18.40
2023-04-15T02:25:57.323Z,19.80
2023-04-15T02:26:57.423Z,20.70
2023-04-15T02:27:57.577Z,19.10
2023-04-15T02:28:56.738Z,18.00
2023-04-15T02:29:56.752Z,18.70
2023-04-15T02:30:56.657Z,19.00
2023-04-15T02:31:56.712Z,19.00
2023-04-15T02:32:56.726Z,18.40
2023-04-15T02:33:56.771Z,19.30
2023-04-15T02:34:56.670Z,19.90
2023-04-15T02:35:56.878Z,17.20
2023-04-15T02:36:56.632Z,17.10
2023-04-15T02:37:56.661Z,18.70
2023-04-15T02:38:57.003Z,18.80
2023-04-15T02:39:57.089Z,17.40
2023-04-15T02:40:57.057Z,17.40
2023-04-15T02:41:56.605Z,17.90
2023-04-15T02:42:56.640Z,19.50
2023-04-15T02:43:56.536Z,19.60
2023-04-15T02:44:56.535Z,17.30
2023-04-15T02:45:56.612Z,18.40
2023-04-15T02:46:56.559Z,17.80
2023-04-15T02:47:56.602Z,20.70
2023-04-15T02:48:56.577Z,19.00
2023-04-15T02:49:56.492Z,18.90
2023-04-15T02:50:56.479Z,21.40
2023-04-15T02:51:56.490Z,18.10
2023-04-15T02:52:56.469Z,17.70
2023-04-15T02:53:56.492Z,17.70
2023-04-15T02:54:56.454Z,18.60
2023-04-15T02:55:56.559Z,18.30
2023-04-15T02:56:56.452Z,18.80
2023-04-15T02:57:56.694Z,18.30
2023-04-15T02:58:56.440Z,17.90
2023-04-15T02:59:56.719Z,16.40
2023-04-15T03:00:56.771Z,20.40
2023-04-15T03:01:56.447Z,19.30
2023-04-15T03:02:56.946Z,21.10
2023-04-15T03:03:56.883Z,21.80
2023-04-15T03:04:56.381Z,19.70
2023-04-15T03:05:56.390Z,19.70
2023-04-15T03:06:56.387Z,20.10
2023-04-15T03:07:56.373Z,20.00
2023-04-15T03:08:56.360Z,19.30
2023-04-15T03:09:56.402Z,20.50
2023-04-15T03:12:22.624Z,17.50
2023-04-15T03:13:22.577Z,20.50
2023-04-15T03:14:22.715Z,19.90
2023-04-15T03:15:22.300Z,19.20
2023-04-15T03:16:22.877Z,19.10
2023-04-15T03:17:22.370Z,16.60
2023-04-15T03:18:22.658Z,21.60
2023-04-15T03:19:22.304Z,20.70
2023-04-15T03:20:23.070Z,20.10
2023-04-15T03:21:22.940Z,22.60
2023-04-15T03:22:22.266Z,20.10
2023-04-15T03:23:23.047Z,23.80
2023-04-15T03:24:22.339Z,21.10
2023-04-15T03:25:22.298Z,20.60
2023-04-15T03:26:22.303Z,20.60
2023-04-15T03:27:22.237Z,19.80
2023-04-15T03:28:22.246Z,21.70
2023-04-15T03:29:22.299Z,20.80
2023-04-15T03:30:22.198Z,24.10
2023-04-15T03:31:22.455Z,25.00
2023-04-15T03:32:22.470Z,18.30
2023-04-15T03:33:22.166Z,22.90
2023-04-15T03:34:22.159Z,20.10
2023-04-15T03:35:22.182Z,22.20
2023-04-15T03:36:22.170Z,22.40
2023-04-15T03:37:22.196Z,22.70
2023-04-15T03:38:22.249Z,22.40
2023-04-15T03:39:22.231Z,24.90
2023-04-15T03:40:22.239Z,22.50
2023-04-15T03:41:22.153Z,25.10
2023-04-15T03:42:22.110Z,23.90
2023-04-15T03:43:22.134Z,24.60
2023-04-15T03:44:22.182Z,24.20
2023-04-15T03:45:22.225Z,22.70
2023-04-15T03:46:22.328Z,22.00
2023-04-15T03:47:22.359Z,21.20
2023-04-15T03:48:22.389Z,21.40
2023-04-15T03:49:22.141Z,21.50
2023-04-15T03:50:22.368Z,21.80
2023-04-15T03:51:22.380Z,22.10
2023-04-15T03:52:22.406Z,21.20
2023-04-15T03:53:22.036Z,23.20
2023-04-15T03:54:22.424Z,23.50
2023-04-15T03:55:22.088Z,25.00
2023-04-15T03:56:22.098Z,25.90
2023-04-15T03:57:22.009Z,21.80
2023-04-15T03:58:22.011Z,20.40
2023-04-15T03:59:22.019Z,20.80
2023-04-15T04:00:22.042Z,23.90
2023-04-15T04:01:22.011Z,21.50
2023-04-15T04:02:22.116Z,19.90
2023-04-15T04:03:22.182Z,22.10
2023-04-15T04:04:22.105Z,19.90
2023-04-15T04:05:22.020Z,22.40
2023-04-15T04:06:21.985Z,18.20
2023-04-15T04:07:21.949Z,21.50
2023-04-15T04:08:22.055Z,19.30
2023-04-15T04:09:21.941Z,18.90
2023-04-15T04:10:21.940Z,19.20
2023-04-15T04:11:21.932Z,20.40
2023-04-15T04:12:21.908Z,19.40
2023-04-15T04:13:22.108Z,21.10
2023-04-15T04:14:22.128Z,20.30
2023-04-15T04:15:21.911Z,21.60
2023-04-15T04:16:22.225Z,18.50
2023-04-15T04:17:22.177Z,18.90
2023-04-15T04:18:21.912Z,18.30
2023-04-15T04:19:21.865Z,17.80
2023-04-15T04:20:21.884Z,18.80
2023-04-15T04:21:21.874Z,20.00
2023-04-15T04:22:21.874Z,19.80
2023-04-15T04:23:21.931Z,22.70
2023-04-15T04:24:21.842Z,21.30
2023-04-15T04:25:21.827Z,19.70
2023-04-15T04:26:21.871Z,22.00
2023-04-15T04:27:22.113Z,20.90
2023-04-15T04:28:21.808Z,19.90
2023-04-15T04:29:21.800Z,23.20
2023-04-15T04:30:21.899Z,20.20
2023-04-15T04:31:21.956Z,19.70
2023-04-15T04:32:21.795Z,20.70
2023-04-15T04:33:22.256Z,20.90
2023-04-15T04:34:21.915Z,20.30
2023-04-15T04:35:22.387Z,20.10
2023-04-15T04:36:22.417Z,18.00
2023-04-15T04:37:21.991Z,20.90
2023-04-15T04:38:21.851Z,19.50
2023-04-15T04:39:21.778Z,21.20
2023-04-15T04:40:22.464Z,20.30
2023-04-15T04:41:21.778Z,18.20
2023-04-15T04:42:21.743Z,22.50
2023-04-15T04:43:21.726Z,19.70
2023-04-15T04:44:21.721Z,20.30
2023-04-15T04:45:21.737Z,22.20
2023-04-15T04:46:21.747Z,22.80
2023-04-15T04:47:21.742Z,19.90
2023-04-15T04:48:21.737Z,22.60
2023-04-15T04:49:21.673Z,18.90
2023-04-15T04:50:21.674Z,20.20
2023-04-15T04:51:21.696Z,21.20
2023-04-15T04:52:21.652Z,18.50
2023-04-15T04:53:21.648Z,20.20
2023-04-15T04:54:21.665Z,20.10
2023-04-15T04:55:21.626Z,20.70
2023-04-15T04:56:21.644Z,20.30
2023-04-15T04:57:21.712Z,20.90
2023-04-15T04:58:21.763Z,22.60
2023-04-15T04:59:21.793Z,22.80
2023-04-15T05:00:21.692Z,21.60
2023-04-15T05:01:21.786Z,21.00
2023-04-15T05:02:21.933Z,21.40
2023-04-15T05:03:22.006Z,18.40
2023-04-15T05:04:21.566Z,21.50
2023-04-15T05:05:21.863Z,18.00
2023-04-15T05:06:21.573Z,19.80
2023-04-15T05:07:21.727Z,19.80
2023-04-15T05:08:21.905Z,21.00
2023-04-15T05:09:21.928Z,19.80
2023-04-15T05:10:21.944Z,19.20
2023-04-15T05:11:21.723Z,21.30
2023-04-15T05:12:21.886Z,20.00
2023-04-15T05:13:21.627Z,20.50
2023-04-15T05:14:23.338Z,18.50
2023-04-15T05:15:21.594Z,20.30
2023-04-15T05:16:21.664Z,19.20
2023-04-15T05:17:21.550Z,19.90
2023-04-15T05:18:21.533Z,23.50
2023-04-15T05:19:21.603Z,22.10
2023-04-15T05:20:21.636Z,17.90
2023-04-15T05:21:21.478Z,20.70
2023-04-15T05:22:21.759Z,20.80
2023-04-15T05:23:21.441Z,20.90
2023-04-15T05:24:21.862Z,21.00
2023-04-15T05:25:21.937Z,21.20
2023-04-15T05:26:21.431Z,20.00
2023-04-15T05:27:22.014Z,22.00
2023-04-15T05:28:21.462Z,19.20
2023-04-15T05:29:21.471Z,21.20
2023-04-15T05:30:21.488Z,19.30
2023-04-15T05:31:21.569Z,21.30
2023-04-15T05:32:21.487Z,19.60
2023-04-15T05:33:21.508Z,18.70
2023-04-15T05:34:21.531Z,20.80
2023-04-15T05:35:21.590Z,19.30
2023-04-15T05:36:21.539Z,21.40
2023-04-15T05:37:21.688Z,19.80
2023-04-15T05:38:21.740Z,19.60
2023-04-15T05:39:21.401Z,20.60
2023-04-15T05:40:21.348Z,17.70
2023-04-15T05:41:21.732Z,19.80
2023-04-15T05:42:21.931Z,19.80
2023-04-15T05:43:21.984Z,20.60
2023-04-15T05:44:22.013Z,18.90
2023-04-15T05:45:21.529Z,24.10
2023-04-15T05:46:21.961Z,22.40
2023-04-15T05:47:21.909Z,24.30
2023-04-15T05:48:22.140Z,20.40
2023-04-15T05:49:21.357Z,20.70
2023-04-15T05:50:21.406Z,19.60
2023-04-15T05:51:22.112Z,24.00
2023-04-15T05:52:22.272Z,22.00
2023-04-15T05:53:21.924Z,19.90
2023-04-15T05:54:21.279Z,22.70
2023-04-15T05:55:22.252Z,22.70
2023-04-15T05:56:21.782Z,20.70
2023-04-15T05:57:21.497Z,24.20
2023-04-15T05:58:21.635Z,25.50
2023-04-15T05:59:21.609Z,24.30
2023-04-15T06:00:22.263Z,23.20
2023-04-15T06:01:21.205Z,23.60
2023-04-15T06:02:21.573Z,20.50
2023-04-15T06:03:21.320Z,24.10
2023-04-15T06:04:21.833Z,21.50
2023-04-15T06:05:21.996Z,23.20
2023-04-15T06:06:21.223Z,21.60
2023-04-15T06:07:21.321Z,21.70
2023-04-15T06:08:21.169Z,20.80
2023-04-15T06:09:21.164Z,22.60
2023-04-15T06:10:21.263Z,22.60
2023-04-15T06:11:21.157Z,20.50
2023-04-15T06:12:21.167Z,23.00
2023-04-15T06:13:21.172Z,23.80
2023-04-15T06:14:21.202Z,26.60
2023-04-15T06:15:21.268Z,24.00
2023-04-15T06:16:21.395Z,22.60
2023-04-15T06:17:21.414Z,22.60
2023-04-15T06:18:21.481Z,22.40
2023-04-15T06:19:21.452Z,27.10
2023-04-15T06:20:21.086Z,24.10
2023-04-15T06:21:21.529Z,24.40
2023-04-15T06:22:21.283Z,23.30
2023-04-15T06:23:21.629Z,21.80
2023-04-15T06:24:21.055Z,23.00
2023-04-15T06:25:21.184Z,21.40
2023-04-15T06:26:21.057Z,23.10
2023-04-15T06:27:21.240Z,21.50
2023-04-15T06:28:21.354Z,25.50
2023-04-15T06:29:21.495Z,23.30
2023-04-15T06:30:23.930Z,27.30
2023-04-15T06:31:21.834Z,24.40
2023-04-15T06:32:21.940Z,24.30
2023-04-15T06:33:21.308Z,24.70
2023-04-15T06:34:21.013Z,22.20
2023-04-15T06:35:21.142Z,21.40
2023-04-15T06:36:21.877Z,21.50
2023-04-15T06:37:21.625Z,23.60
2023-04-15T06:38:20.945Z,20.50
2023-04-15T06:39:21.144Z,23.30
2023-04-15T06:40:21.254Z,22.80
2023-04-15T06:41:20.933Z,21.70
2023-04-15T06:42:20.938Z,23.50
2023-04-15T06:43:21.019Z,23.30
2023-04-15T06:44:20.904Z,25.80
2023-04-15T06:45:22.042Z,24.90
2023-04-15T06:46:21.154Z,22.50
2023-04-15T06:47:21.073Z,27.90
2023-04-15T06:48:20.915Z,22.80
2023-04-15T06:49:20.969Z,24.10
2023-04-15T06:50:21.199Z,24.90
2023-04-15T06:51:21.228Z,23.50
2023-04-15T06:52:20.846Z,23.50
2023-04-15T06:53:21.318Z,24.60
2023-04-15T06:54:20.846Z,23.30
2023-04-15T06:55:20.856Z,26.20
2023-04-15T06:56:20.832Z,23.70
2023-04-15T06:57:20.833Z,23.10
2023-04-15T06:58:21.574Z,21.90
2023-04-15T06:59:20.852Z,23.40
2023-04-15T07:00:20.849Z,21.60
2023-04-15T07:01:20.929Z,23.50
2023-04-15T07:02:20.906Z,22.60
2023-04-15T07:03:21.141Z,22.90
2023-04-15T07:04:21.352Z,23.50
2023-04-15T07:05:20.791Z,22.20
2023-04-15T07:06:20.901Z,21.90
2023-04-15T07:07:20.777Z,22.50
2023-04-15T07:08:20.798Z,23.40
2023-04-15T07:09:20.867Z,23.00
2023-04-15T07:10:20.742Z,22.30
2023-04-15T07:11:20.966Z,20.90
2023-04-15T07:12:21.014Z,21.70
2023-04-15T07:13:21.072Z,21.60
2023-04-15T07:14:20.941Z,22.80
2023-04-15T07:15:21.177Z,22.00
2023-04-15T07:16:20.928Z,21.80
2023-04-15T07:17:21.286Z,23.50
2023-04-15T07:18:21.310Z,21.30
2023-04-15T07:19:20.700Z,22.80
2023-04-15T07:20:20.670Z,20.70
2023-04-15T07:21:20.704Z,22.90
2023-04-15T07:22:20.655Z,19.30
2023-04-15T07:23:20.774Z,21.60
2023-04-15T07:24:20.817Z,20.50
2023-04-15T07:25:20.871Z,21.30
2023-04-15T07:26:20.911Z,22.30
2023-04-15T07:27:20.959Z,20.70
2023-04-15T07:28:20.958Z,20.50
2023-04-15T07:29:20.626Z,22.90
2023-04-15T07:30:21.107Z,21.90
2023-04-15T07:31:21.193Z,21.70
2023-04-15T07:32:20.794Z,21.60
2023-04-15T07:33:21.105Z,22.60
2023-04-15T07:34:20.705Z,22.70
2023-04-15T07:35:21.386Z,20.90
2023-04-15T07:36:21.426Z,20.90
2023-04-15T07:37:20.793Z,22.40
2023-04-15T07:38:21.092Z,22.00
2023-04-15T07:39:21.461Z,21.30
2023-04-15T07:40:21.369Z,20.70
2023-04-15T07:41:20.763Z,22.10
2023-04-15T07:42:21.174Z,23.30
2023-04-15T07:43:20.883Z,21.40
2023-04-15T07:44:20.521Z,23.40
2023-04-15T07:45:20.611Z,23.10
2023-04-15T07:46:20.529Z,23.00
2023-04-15T07:47:20.708Z,22.60
2023-04-15T07:48:21.052Z,23.40
2023-04-15T07:49:20.476Z,25.20
2023-04-15T07:50:20.484Z,22.20
2023-04-15T07:51:20.472Z,22.60
2023-04-15T07:52:20.482Z,22.10
2023-04-15T07:53:20.446Z,21.10
2023-04-15T07:54:20.498Z,25.60
2023-04-15T07:55:20.518Z,22.80
2023-04-15T07:56:20.411Z,23.40
2023-04-15T07:57:20.445Z,22.80
2023-04-15T07:58:20.438Z,22.80
2023-04-15T07:59:20.419Z,22.80
2023-04-15T08:00:20.470Z,22.90
2023-04-15T08:01:20.498Z,24.10
2023-04-15T08:02:20.707Z,22.20
2023-04-15T08:03:20.409Z,23.00
2023-04-15T08:04:20.739Z,22.30
2023-04-15T08:05:20.698Z,22.10
2023-04-15T08:06:20.659Z,23.80
2023-04-15T08:07:20.332Z,23.90
2023-04-15T08:08:20.336Z,23.30
2023-04-15T08:09:20.324Z,24.70
2023-04-15T08:10:20.330Z,24.00
2023-04-15T08:11:20.311Z,24.10
2023-04-15T08:12:20.298Z,21.20
2023-04-15T08:13:20.344Z,22.20
2023-04-15T08:14:20.314Z,24.50
2023-04-15T08:15:20.325Z,23.40
2023-04-15T08:16:20.311Z,24.30
2023-04-15T08:17:20.302Z,24.60
2023-04-15T08:18:20.305Z,25.00
2023-04-15T08:19:20.310Z,23.00
2023-04-15T08:20:20.317Z,24.60
2023-04-15T08:21:20.351Z,24.20
2023-04-15T08:22:21.327Z,25.90
2023-04-15T08:23:20.361Z,25.10
2023-04-15T08:24:20.213Z,24.90
2023-04-15T08:25:20.301Z,26.20
2023-04-15T08:26:20.400Z,24.80
2023-04-15T08:27:20.401Z,25.40
2023-04-15T08:28:20.413Z,24.50
2023-04-15T08:29:20.209Z,28.90
2023-04-15T08:30:20.302Z,23.40
2023-04-15T08:31:20.473Z,24.80
2023-04-15T08:32:20.237Z,24.80
2023-04-15T08:33:20.152Z,26.50
2023-04-15T08:34:20.157Z,25.30
2023-04-15T08:35:20.249Z,25.70
2023-04-15T08:36:20.140Z,25.10
2023-04-15T08:37:20.420Z,26.70
2023-04-15T08:38:20.476Z,25.20
2023-04-15T08:39:20.516Z,27.30
2023-04-15T08:40:20.443Z,25.80
2023-04-15T08:41:21.614Z,25.80
2023-04-15T08:42:20.600Z,23.10
2023-04-15T08:43:20.623Z,23.70
2023-04-15T08:44:20.087Z,26.10
2023-04-15T08:45:20.102Z,24.00
2023-04-15T08:46:20.550Z,27.00
2023-04-15T08:47:20.427Z,20.40
2023-04-15T08:48:20.683Z,26.20
2023-04-15T08:49:20.150Z,24.80
2023-04-15T08:50:20.055Z,22.00
2023-04-15T08:51:20.052Z,23.40
2023-04-15T08:52:20.166Z,21.30
2023-04-15T08:53:20.227Z,24.00
2023-04-15T08:54:20.277Z,21.70
2023-04-15T08:55:20.329Z,24.20
2023-04-15T08:56:20.024Z,22.90
2023-04-15T08:57:20.001Z,23.30
2023-04-15T08:58:20.000Z,25.50
2023-04-15T08:59:20.007Z,24.20
2023-04-15T09:00:20.017Z,26.80
2023-04-15T09:01:20.139Z,28.30
2023-04-15T09:02:20.052Z,23.20
2023-04-15T09:03:20.010Z,22.50
2023-04-15T09:04:20.112Z,23.00
2023-04-15T09:05:20.028Z,20.90
2023-04-15T09:06:20.009Z,24.80
2023-04-15T09:07:19.967Z,23.60
2023-04-15T09:08:20.059Z,23.00
2023-04-15T09:09:20.047Z,25.10
2023-04-15T09:10:20.054Z,22.90
2023-04-15T09:11:20.373Z,24.10
2023-04-15T09:12:20.073Z,25.00
2023-04-15T09:13:20.104Z,23.70
2023-04-15T09:14:20.109Z,23.40
2023-04-15T09:15:20.123Z,24.20
2023-04-15T09:16:20.169Z,23.20
2023-04-15T09:17:20.166Z,25.10
2023-04-15T09:18:20.033Z,26.30
2023-04-15T09:19:19.842Z,26.60
2023-04-15T09:20:20.096Z,22.70
2023-04-15T09:21:20.122Z,26.00
2023-04-15T09:22:20.205Z,27.80
2023-04-15T09:23:19.952Z,28.60
2023-04-15T09:24:20.116Z,28.80
2023-04-15T09:25:19.828Z,26.80
2023-04-15T09:26:20.196Z,27.10
2023-04-15T09:27:20.269Z,27.20
2023-04-15T09:28:19.785Z,27.40
2023-04-15T09:29:19.800Z,27.40
2023-04-15T09:30:20.058Z,30.00
2023-04-15T09:31:20.391Z,28.90
2023-04-15T09:32:20.337Z,30.30
2023-04-15T09:33:20.342Z,29.20
2023-04-15T09:34:19.771Z,31.50
2023-04-15T09:35:19.746Z,30.00
2023-04-15T09:36:20.382Z,30.10
2023-04-15T09:37:31.513Z,32.30
2023-04-15T09:38:20.419Z,30.40
2023-04-15T09:39:20.431Z,31.40
2023-04-15T09:40:20.436Z,28.80
2023-04-15T09:41:19.721Z,32.50
2023-04-15T09:42:19.688Z,33.60
2023-04-15T09:43:19.710Z,31.60
2023-04-15T09:44:19.763Z,31.20
2023-04-15T09:45:19.811Z,32.70
2023-04-15T09:46:19.913Z,35.10
2023-04-15T09:47:19.927Z,36.70
2023-04-15T09:48:19.973Z,35.80
2023-04-15T09:49:20.027Z,36.60
2023-04-15T09:50:20.060Z,36.70
2023-04-15T09:51:20.119Z,35.40
2023-04-15T09:52:20.185Z,39.30
2023-04-15T09:53:19.684Z,38.40
2023-04-15T09:54:19.898Z,43.60
2023-04-15T09:55:19.923Z,45.10
2023-04-15T09:56:20.007Z,48.70
2023-04-15T09:57:19.596Z,46.10
2023-04-15T09:58:20.424Z,43.70
2023-04-15T09:59:20.207Z,43.80
2023-04-15T10:00:19.690Z,43.50
2023-04-15T10:01:20.174Z,43.50
2023-04-15T10:02:20.861Z,42.40
2023-04-15T10:03:20.700Z,44.20
2023-04-15T10:04:19.726Z,41.90
2023-04-15T10:05:19.670Z,41.80
2023-04-15T10:06:20.415Z,41.10
2023-04-15T10:07:20.686Z,42.00
2023-04-15T10:08:20.359Z,45.10
2023-04-15T10:09:19.738Z,44.00
2023-04-15T10:10:19.687Z,39.60
2023-04-15T10:11:20.441Z,39.30
2023-04-15T10:12:20.344Z,43.00
2023-04-15T10:13:19.504Z,41.80
2023-04-15T10:14:19.500Z,41.30
2023-04-15T10:15:19.546Z,35.50
2023-04-15T10:16:19.589Z,36.20
2023-04-15T10:17:19.491Z,34.20
2023-04-15T10:18:19.508Z,36.10
2023-04-15T10:19:19.440Z,38.20
2023-04-15T10:20:19.479Z,35.20
2023-04-15T10:21:19.525Z,38.10
2023-04-15T10:22:19.579Z,34.00
2023-04-15T10:23:19.622Z,32.50
2023-04-15T10:24:19.673Z,35.00
2023-04-15T10:25:19.722Z,36.50
2023-04-15T10:26:19.713Z,33.20
2023-04-15T10:27:19.416Z,32.30
2023-04-15T10:28:19.460Z,32.70
2023-04-15T10:29:19.407Z,34.80
2023-04-15T10:30:19.415Z,33.10
2023-04-15T10:31:19.428Z,31.00
2023-04-15T10:32:19.379Z,30.80
2023-04-15T10:33:19.430Z,29.80
2023-04-15T10:34:19.352Z,30.70
2023-04-15T10:35:19.506Z,30.60
2023-04-15T10:36:19.577Z,30.40
2023-04-15T10:37:19.568Z,24.50
2023-04-15T10:38:19.649Z,29.20
2023-04-15T10:39:19.526Z,27.10
2023-04-15T10:40:19.320Z,26.90
2023-04-15T10:41:21.091Z,27.20
2023-04-15T10:42:19.400Z,24.10
2023-04-15T10:43:19.748Z,24.10
2023-04-15T10:44:19.918Z,27.10
2023-04-15T10:45:19.267Z,26.00
2023-04-15T10:46:20.068Z,24.60
2023-04-15T10:47:19.276Z,24.00
2023-04-15T10:48:19.597Z,23.50
2023-04-15T10:49:19.797Z,25.40
2023-04-15T10:50:19.497Z,24.50
2023-04-15T10:51:19.465Z,21.60
2023-04-15T10:52:19.537Z,22.90
2023-04-15T10:53:21.762Z,22.70
2023-04-15T10:54:19.308Z,23.40
2023-04-15T10:55:19.727Z,25.30
2023-04-15T10:56:19.188Z,25.60
2023-04-15T10:57:19.226Z,22.90
2023-04-15T10:58:19.273Z,24.20
2023-04-15T10:59:20.386Z,20.60
2023-04-15T11:00:19.169Z,22.30
2023-04-15T11:01:19.423Z,22.30
2023-04-15T11:02:19.614Z,20.20
2023-04-15T11:03:19.623Z,20.30
2023-04-15T11:04:19.649Z,21.80
2023-04-15T11:05:19.583Z,22.40
2023-04-15T11:06:19.623Z,20.50
2023-04-15T11:07:19.244Z,21.10
2023-04-15T11:08:19.710Z,23.50
2023-04-15T11:09:19.753Z,24.40
2023-04-15T11:10:19.137Z,18.80
2023-04-15T11:11:19.132Z,20.50
2023-04-15T11:12:19.341Z,23.00
2023-04-15T11:13:19.943Z,23.00
2023-04-15T11:14:20.034Z,20.70
2023-04-15T11:15:19.236Z,21.50
2023-04-15T11:16:19.554Z,20.70
2023-04-15T11:17:19.418Z,24.50
2023-04-15T11:18:19.962Z,21.70
2023-04-15T11:19:19.829Z,20.60
2023-04-15T11:20:19.272Z,25.30
2023-04-15T11:21:19.033Z,24.20
2023-04-15T11:22:19.089Z,21.60
2023-04-15T11:23:19.755Z,20.20
2023-04-15T11:24:19.018Z,22.90
2023-04-15T11:25:19.746Z,18.00
2023-04-15T11:26:19.163Z,20.20
2023-04-15T11:27:19.065Z,21.80
2023-04-15T11:28:19.073Z,23.10
2023-04-15T11:29:19.164Z,21.20
2023-04-15T11:30:18.980Z,21.00
2023-04-15T11:31:19.047Z,20.10
2023-04-15T11:32:19.013Z,21.70
2023-04-15T11:33:18.930Z,23.00
2023-04-15T11:34:18.983Z,19.30
2023-04-15T11:35:18.991Z,20.80
2023-04-15T11:36:19.126Z,20.00
2023-04-15T11:37:19.127Z,20.60
2023-04-15T11:38:19.132Z,21.10
2023-04-15T11:39:18.912Z,18.40
2023-04-15T11:40:19.228Z,19.80
2023-04-15T11:41:19.230Z,20.80
2023-04-15T11:42:18.957Z,19.00
2023-04-15T11:43:19.380Z,19.40
2023-04-15T11:44:19.063Z,19.00
2023-04-15T11:45:19.499Z,20.30
2023-04-15T11:46:19.561Z,17.00
2023-04-15T11:47:19.624Z,17.70
2023-04-15T11:48:19.432Z,18.90
2023-04-15T11:49:19.011Z,19.60
2023-04-15T11:50:19.220Z,18.70
2023-04-15T11:51:19.513Z,18.00
2023-04-15T11:52:19.244Z,16.60
2023-04-15T11:53:19.447Z,17.70
2023-04-15T11:54:19.769Z,19.00
2023-04-15T11:55:19.126Z,19.20
2023-04-15T11:56:18.767Z,18.10
2023-04-15T11:57:19.152Z,16.00
2023-04-15T11:58:18.764Z,16.80
2023-04-15T11:59:18.747Z,17.90
2023-04-15T12:00:18.764Z,17.30
2023-04-15T12:01:18.762Z,20.60
2023-04-15T12:02:18.923Z,16.60
2023-04-15T12:03:19.029Z,18.60
2023-04-15T12:04:20.175Z,17.40
2023-04-15T12:05:18.804Z,19.10
2023-04-15T12:06:18.943Z,17.70
2023-04-15T12:07:18.754Z,18.80
2023-04-15T12:08:18.765Z,16.20
2023-04-15T12:09:18.782Z,19.00
2023-04-15T12:10:18.793Z,20.10
2023-04-15T12:11:18.665Z,21.10
2023-04-15T12:12:18.660Z,18.70
2023-04-15T12:13:18.768Z,19.80
2023-04-15T12:14:18.662Z,19.20
2023-04-15T12:15:18.787Z,20.60
2023-04-15T12:16:18.757Z,21.80
2023-04-15T12:17:18.652Z,21.00
2023-04-15T12:18:18.703Z,22.80
2023-04-15T12:19:18.633Z,18.80
2023-04-15T12:20:18.630Z,20.80
2023-04-15T12:21:18.600Z,20.80
2023-04-15T12:22:18.586Z,21.40
2023-04-15T12:23:18.631Z,21.30
2023-04-15T12:24:18.668Z,22.10
2023-04-15T12:25:18.648Z,20.30
2023-04-15T12:26:18.561Z,26.90
2023-04-15T12:27:18.574Z,24.50
2023-04-15T12:28:18.548Z,21.10
2023-04-15T12:29:18.573Z,25.50
2023-04-15T12:30:18.557Z,23.00
2023-04-15T12:31:18.553Z,23.10
2023-04-15T12:32:18.554Z,22.90
2023-04-15T12:33:18.571Z,18.90
2023-04-15T12:34:18.670Z,19.20
2023-04-15T12:35:18.523Z,18.40
2023-04-15T12:36:18.493Z,16.70
2023-04-15T12:37:18.498Z,16.80
2023-04-15T12:38:18.486Z,15.90
2023-04-15T12:39:18.467Z,13.60
2023-04-15T12:40:18.502Z,13.90
2023-04-15T12:41:18.473Z,16.40
2023-04-15T12:42:18.572Z,13.00
2023-04-15T12:43:18.465Z,14.70
2023-04-15T12:44:18.458Z,15.90
2023-04-15T12:45:18.527Z,11.60
2023-04-15T12:46:18.456Z,15.00
2023-04-15T12:47:18.456Z,14.20
2023-04-15T12:48:18.433Z,14.10
2023-04-15T12:49:18.433Z,14.70
2023-04-15T12:50:18.421Z,13.50
2023-04-15T12:51:18.407Z,12.60
2023-04-15T12:52:18.397Z,13.20
2023-04-15T12:53:18.380Z,12.80
2023-04-15T12:54:18.433Z,13.00